createdAt,value
2022-12-04T00:02:05.532Z,29.83
2022-12-04T00:04:31.930Z,28.35
2022-12-04T00:06:59.090Z,29.40
2022-12-04T00:09:25.681Z,29.58
2022-12-04T00:11:52.142Z,31.48
2022-12-04T00:14:18.796Z,30.60
2022-12-04T00:16:45.292Z,33.45
2022-12-04T00:19:11.756Z,30.77
2022-12-04T00:21:38.278Z,29.17
2022-12-04T00:24:05.225Z,29.73
2022-12-04T00:26:31.692Z,28.85
2022-12-04T00:28:58.666Z,27.50
2022-12-04T00:31:27.160Z,28.50
2022-12-04T00:33:53.898Z,28.50
2022-12-04T00:36:23.199Z,30.47
2022-12-04T00:38:49.735Z,29.48
2022-12-04T00:41:18.831Z,29.10
2022-12-04T00:43:48.386Z,29.55
2022-12-04T00:46:15.532Z,29.42
2022-12-04T00:48:42.592Z,29.50
2022-12-04T00:51:12.403Z,30.52
2022-12-04T00:53:39.548Z,30.92
2022-12-04T00:56:08.881Z,30.13
2022-12-04T00:58:36.023Z,29.13
2022-12-04T01:01:06.031Z,30.38
2022-12-04T01:03:33.389Z,30.50
2022-12-04T01:06:01.478Z,30.48
2022-12-04T01:08:28.264Z,30.55
2022-12-04T01:10:54.970Z,28.40
2022-12-04T01:13:23.012Z,29.92
2022-12-04T01:15:49.556Z,29.95
2022-12-04T01:18:16.394Z,30.88
2022-12-04T01:20:52.763Z,29.63
2022-12-04T01:23:19.598Z,29.13
2022-12-04T01:25:57.954Z,29.67
2022-12-04T01:31:07.080Z,28.52
2022-12-04T01:33:35.462Z,30.67
2022-12-04T01:36:03.312Z,31.15
2022-12-04T01:38:30.225Z,27.83
2022-12-04T01:40:57.863Z,28.17
2022-12-04T01:45:54.563Z,27.63
2022-12-04T01:48:31.056Z,28.80
2022-12-04T01:51:20.528Z,30.50
2022-12-04T01:53:51.466Z,28.80
2022-12-04T01:56:19.723Z,30.48
2022-12-04T01:58:48.436Z,31.38
2022-12-04T02:01:15.001Z,28.45
2022-12-04T02:03:41.614Z,28.38
2022-12-04T02:06:08.164Z,29.60
2022-12-04T02:08:36.280Z,30.33
2022-12-04T02:11:13.173Z,28.83
2022-12-04T02:14:10.599Z,30.20
2022-12-04T02:16:40.266Z,29.45
2022-12-04T02:19:31.308Z,29.05
2022-12-04T02:22:03.027Z,29.40
2022-12-04T02:24:50.865Z,29.08
2022-12-04T02:28:03.612Z,28.35
2022-12-04T02:30:31.903Z,27.67
2022-12-04T02:33:08.023Z,27.85
2022-12-04T02:35:41.227Z,27.83
2022-12-04T02:38:18.599Z,27.73
2022-12-04T02:40:51.433Z,29.50
2022-12-04T02:43:24.676Z,29.35
2022-12-04T02:46:14.118Z,28.33
2022-12-04T02:48:44.004Z,29.98
2022-12-04T02:51:14.109Z,29.73
2022-12-04T02:53:44.927Z,29.55
2022-12-04T02:56:16.356Z,30.05
2022-12-04T02:58:49.537Z,31.83
2022-12-04T03:01:25.692Z,30.38
2022-12-04T03:03:58.988Z,30.70
2022-12-04T03:06:29.186Z,29.40
2022-12-04T03:09:02.308Z,30.65
2022-12-04T03:11:34.373Z,29.45
2022-12-04T03:14:10.576Z,27.08
2022-12-04T03:16:43.956Z,28.23
2022-12-04T03:19:19.561Z,28.15
2022-12-04T03:21:54.319Z,30.65
2022-12-04T03:24:26.811Z,29.30
2022-12-04T03:27:05.615Z,29.92
2022-12-04T03:29:40.761Z,28.48
2022-12-04T03:32:15.238Z,26.60
2022-12-04T03:35:00.266Z,29.52
2022-12-04T03:37:41.756Z,28.88
2022-12-04T03:40:15.980Z,29.90
2022-12-04T03:43:22.113Z,28.80
2022-12-04T03:45:52.275Z,28.55
2022-12-04T03:48:31.268Z,30.50
2022-12-04T03:51:09.058Z,27.88
2022-12-04T03:53:45.730Z,26.60
2022-12-04T03:56:15.972Z,27.52
2022-12-04T03:58:47.972Z,26.95
2022-12-04T04:01:18.088Z,27.77
2022-12-04T04:03:51.123Z,29.10
2022-12-04T04:06:28.503Z,27.35
2022-12-04T04:09:10.333Z,27.98
2022-12-04T04:11:51.480Z,26.73
2022-12-04T04:14:42.564Z,28.42
2022-12-04T04:17:38.140Z,28.08
2022-12-04T04:20:49.907Z,28.02
2022-12-04T04:23:37.760Z,26.55
2022-12-04T04:26:05.721Z,27.40
2022-12-04T04:28:35.675Z,25.63
2022-12-04T04:31:29.730Z,27.42
2022-12-04T04:34:24.043Z,27.05
2022-12-04T04:36:55.241Z,28.02
2022-12-04T04:39:36.111Z,24.95
2022-12-04T04:42:10.772Z,26.27
2022-12-04T04:44:56.028Z,27.00
2022-12-04T04:47:38.045Z,26.25
2022-12-04T04:50:08.621Z,25.45
2022-12-04T04:52:39.854Z,25.50
2022-12-04T04:55:08.086Z,26.98
2022-12-04T04:57:36.458Z,25.27
2022-12-04T05:00:14.143Z,26.83
2022-12-04T05:02:41.665Z,27.17
2022-12-04T05:05:09.014Z,28.00
2022-12-04T05:07:35.969Z,25.83
2022-12-04T05:10:02.636Z,26.48
2022-12-04T05:12:29.186Z,25.27
2022-12-04T05:14:56.736Z,25.63
2022-12-04T05:17:24.807Z,28.02
2022-12-04T05:19:56.725Z,25.02
2022-12-04T05:22:27.540Z,26.40
2022-12-04T05:24:55.653Z,26.40
2022-12-04T05:27:22.870Z,25.60
2022-12-04T05:29:56.078Z,25.42
2022-12-04T05:32:25.063Z,27.95
2022-12-04T05:34:53.204Z,25.98
2022-12-04T05:37:20.566Z,25.90
2022-12-04T05:39:47.380Z,26.08
2022-12-04T05:42:14.477Z,26.23
2022-12-04T05:44:41.083Z,24.80
2022-12-04T05:47:07.738Z,26.73
2022-12-04T05:49:35.213Z,27.70
2022-12-04T05:52:03.557Z,24.63
2022-12-04T05:54:30.190Z,26.02
2022-12-04T05:56:56.926Z,25.33
2022-12-04T05:59:23.723Z,26.07
2022-12-04T06:01:52.388Z,27.53
2022-12-04T06:04:19.202Z,25.80
2022-12-04T06:06:46.885Z,26.33
2022-12-04T06:11:42.051Z,26.70
2022-12-04T06:14:12.880Z,26.73
2022-12-04T06:16:45.115Z,25.60
2022-12-04T06:19:17.940Z,26.13
2022-12-04T06:21:46.596Z,25.55
2022-12-04T06:24:15.279Z,25.92
2022-12-04T06:27:03.894Z,27.55
2022-12-04T06:29:28.758Z,25.50
2022-12-04T06:31:55.458Z,26.63
2022-12-04T06:34:22.289Z,26.60
2022-12-04T06:36:48.833Z,27.47
2022-12-04T06:39:18.660Z,25.80
2022-12-04T06:41:47.612Z,25.90
2022-12-04T06:44:15.569Z,26.58
2022-12-04T06:46:46.840Z,26.10
2022-12-04T06:49:14.296Z,26.17
2022-12-04T06:51:41.902Z,26.13
2022-12-04T06:56:38.906Z,26.42
2022-12-04T06:59:05.743Z,24.08
2022-12-04T07:01:34.205Z,27.08
2022-12-04T07:04:03.954Z,27.13
2022-12-04T07:06:35.904Z,27.30
2022-12-04T07:09:07.017Z,25.85
2022-12-04T07:11:34.927Z,25.20
2022-12-04T07:14:01.846Z,26.40
2022-12-04T07:16:35.319Z,26.40
2022-12-04T07:19:04.953Z,24.45
2022-12-04T07:21:31.668Z,21.52
2022-12-04T07:24:00.995Z,24.93
2022-12-04T07:26:28.792Z,24.23
2022-12-04T07:28:56.645Z,24.85
2022-12-04T07:31:24.891Z,23.70
2022-12-04T07:33:53.381Z,23.75
2022-12-04T07:36:21.242Z,22.75
2022-12-04T07:38:47.718Z,24.15
2022-12-04T07:41:15.277Z,21.95
2022-12-04T07:43:42.056Z,24.48
2022-12-04T07:46:11.375Z,23.37
2022-12-04T07:48:37.773Z,21.45
2022-12-04T07:51:10.414Z,22.80
2022-12-04T07:53:37.325Z,22.77
2022-12-04T07:56:04.852Z,21.98
2022-12-04T07:58:32.044Z,20.55
2022-12-04T08:01:16.259Z,19.48
2022-12-04T08:03:47.944Z,19.88
2022-12-04T08:06:19.561Z,17.60
2022-12-04T08:08:47.066Z,18.45
2022-12-04T08:11:16.268Z,18.38
2022-12-04T08:13:42.785Z,17.42
2022-12-04T08:16:12.173Z,18.52
2022-12-04T08:18:38.724Z,19.92
2022-12-04T08:21:09.446Z,18.38
2022-12-04T08:23:38.592Z,18.45
2022-12-04T08:26:05.846Z,18.88
2022-12-04T08:28:32.855Z,16.65
2022-12-04T08:31:04.721Z,19.15
2022-12-04T08:33:31.693Z,16.42
2022-12-04T08:35:58.348Z,16.27
2022-12-04T08:38:24.802Z,17.60
2022-12-04T08:40:51.361Z,16.17
2022-12-04T08:43:17.791Z,15.05
2022-12-04T08:45:44.173Z,15.30
2022-12-04T08:48:10.560Z,16.42
2022-12-04T08:50:36.910Z,15.15
2022-12-04T08:53:03.319Z,14.65
2022-12-04T08:55:29.725Z,14.00
2022-12-04T08:57:56.122Z,14.50
2022-12-04T09:00:22.680Z,14.77
2022-12-04T09:02:50.186Z,13.98
2022-12-04T09:05:17.316Z,21.33
2022-12-04T09:07:43.853Z,20.55
2022-12-04T09:10:11.007Z,12.98
2022-12-04T09:12:37.439Z,12.80
2022-12-04T09:15:04.124Z,14.45
2022-12-04T09:17:30.487Z,14.53
2022-12-04T09:20:00.957Z,12.52
2022-12-04T09:22:40.365Z,14.00
2022-12-04T09:25:14.236Z,12.93
2022-12-04T09:27:43.540Z,12.77
2022-12-04T09:30:11.563Z,13.55
2022-12-04T09:32:38.555Z,14.20
2022-12-04T09:35:06.277Z,13.55
2022-12-04T09:39:59.543Z,15.00
2022-12-04T09:43:06.960Z,12.20
2022-12-04T09:45:44.671Z,15.18
2022-12-04T09:48:12.223Z,13.27
2022-12-04T09:50:45.052Z,12.85
2022-12-04T09:53:19.493Z,11.57
2022-12-04T09:56:01.457Z,12.20
2022-12-04T09:58:40.127Z,12.45
2022-12-04T10:01:13.739Z,10.90
2022-12-04T10:03:40.237Z,12.70
2022-12-04T10:06:22.598Z,12.48
2022-12-04T10:09:12.376Z,10.88
2022-12-04T10:12:01.917Z,10.75
2022-12-04T10:14:50.990Z,11.68
2022-12-04T10:17:35.237Z,11.30
2022-12-04T10:20:13.599Z,14.10
2022-12-04T10:25:27.026Z,12.65
2022-12-04T10:27:57.985Z,12.35
2022-12-04T10:30:28.859Z,11.75
2022-12-04T10:33:05.086Z,10.77
2022-12-04T10:35:33.511Z,11.13
2022-12-04T10:38:09.685Z,11.38
2022-12-04T10:40:51.054Z,11.85
2022-12-04T10:43:34.773Z,12.50
2022-12-04T10:46:01.120Z,12.45
2022-12-04T10:48:39.705Z,12.10
2022-12-04T10:51:06.425Z,11.10
2022-12-04T10:53:36.931Z,11.40
2022-12-04T10:56:16.069Z,11.63
2022-12-04T10:58:42.493Z,10.75
2022-12-04T11:01:12.369Z,13.38
2022-12-04T11:03:39.481Z,12.40
2022-12-04T11:06:09.619Z,11.93
2022-12-04T11:08:41.071Z,12.57
2022-12-04T11:11:11.353Z,12.13
2022-12-04T11:13:38.792Z,13.43
2022-12-04T11:16:09.193Z,13.75
2022-12-04T11:18:49.677Z,11.57
2022-12-04T11:21:19.186Z,12.98
2022-12-04T11:23:48.709Z,13.00
2022-12-04T11:26:16.818Z,13.57
2022-12-04T11:28:53.433Z,13.82
2022-12-04T11:31:22.766Z,13.20
2022-12-04T11:33:54.596Z,13.85
2022-12-04T11:36:24.978Z,12.88
2022-12-04T11:38:54.443Z,14.57
2022-12-04T11:41:28.056Z,14.55
2022-12-04T11:43:59.658Z,15.32
2022-12-04T11:46:30.938Z,23.55
2022-12-04T11:48:57.765Z,17.90
2022-12-04T11:51:44.328Z,14.00
2022-12-04T11:54:21.111Z,14.38
2022-12-04T11:56:55.490Z,14.02
2022-12-04T11:59:37.234Z,15.32
2022-12-04T12:02:26.844Z,16.30
2022-12-04T12:05:02.205Z,14.13
2022-12-04T12:08:02.824Z,17.60
2022-12-04T12:10:43.121Z,15.90
2022-12-04T12:13:42.792Z,13.98
2022-12-04T12:16:33.413Z,17.70
2022-12-04T12:19:27.943Z,16.52
2022-12-04T12:22:06.756Z,16.02
2022-12-04T12:24:54.000Z,14.63
2022-12-04T12:27:20.746Z,14.38
2022-12-04T12:29:56.159Z,16.30
2022-12-04T12:32:41.631Z,14.77
2022-12-04T12:35:35.714Z,17.00
2022-12-04T12:38:26.006Z,16.02
2022-12-04T12:41:07.165Z,16.33
2022-12-04T12:43:37.287Z,15.60
2022-12-04T12:46:11.921Z,18.30
2022-12-04T12:49:02.682Z,17.70
2022-12-04T12:51:41.185Z,16.83
2022-12-04T12:54:53.269Z,17.70
2022-12-04T12:57:33.831Z,16.77
2022-12-04T13:00:10.328Z,17.02
2022-12-04T13:02:45.596Z,16.02
2022-12-04T13:05:16.458Z,17.67
2022-12-04T13:07:50.884Z,17.50
2022-12-04T13:10:36.370Z,17.40
2022-12-04T13:13:17.685Z,15.93
2022-12-04T13:16:08.043Z,16.73
2022-12-04T13:18:41.377Z,18.73
2022-12-04T13:21:12.686Z,19.45
2022-12-04T13:23:55.114Z,18.65
2022-12-04T13:26:49.563Z,20.48
2022-12-04T13:29:44.859Z,18.42
2022-12-04T13:32:48.177Z,18.40
2022-12-04T13:35:29.803Z,18.48
2022-12-04T13:38:12.557Z,17.52
2022-12-04T13:40:44.656Z,19.10
2022-12-04T13:43:33.528Z,16.90
2022-12-04T13:48:36.522Z,18.58
2022-12-04T13:51:22.378Z,19.63
2022-12-04T13:54:01.285Z,18.27
2022-12-04T13:56:30.501Z,18.98
2022-12-04T13:59:01.201Z,19.83
2022-12-04T14:01:33.957Z,19.90
2022-12-04T14:04:00.503Z,19.20
2022-12-04T14:06:43.217Z,20.02
2022-12-04T14:09:26.153Z,18.17
2022-12-04T14:11:57.859Z,18.27
2022-12-04T14:14:28.246Z,17.42
2022-12-04T14:16:57.832Z,16.88
2022-12-04T14:19:31.866Z,17.50
2022-12-04T14:21:58.819Z,18.48
2022-12-04T14:24:25.102Z,19.65
2022-12-04T14:29:49.536Z,18.17
2022-12-04T14:32:21.519Z,16.95
2022-12-04T14:34:49.310Z,17.83
2022-12-04T14:37:30.728Z,18.65
2022-12-04T14:39:58.582Z,16.60
2022-12-04T14:42:36.608Z,21.00
2022-12-04T14:45:16.365Z,18.02
2022-12-04T14:48:06.007Z,19.20
2022-12-04T14:50:46.074Z,17.13
2022-12-04T14:53:37.582Z,18.60
2022-12-04T14:56:35.008Z,19.70
2022-12-04T14:59:09.006Z,17.60
2022-12-04T15:01:38.830Z,17.30
2022-12-04T15:04:24.944Z,19.83
2022-12-04T15:06:58.324Z,18.70
2022-12-04T15:09:46.593Z,18.67
2022-12-04T15:12:33.931Z,19.08
2022-12-04T15:15:14.198Z,18.20
2022-12-04T15:17:41.666Z,16.85
2022-12-04T15:20:16.891Z,19.52
2022-12-04T15:22:43.930Z,18.73
2022-12-04T15:25:22.486Z,18.58
2022-12-04T15:27:51.629Z,18.02
2022-12-04T15:30:21.575Z,18.02
2022-12-04T15:32:51.783Z,19.13
2022-12-04T15:35:34.836Z,18.80
2022-12-04T15:38:01.754Z,18.63
2022-12-04T15:40:30.238Z,19.55
2022-12-04T15:43:15.340Z,18.23
2022-12-04T15:45:41.735Z,19.63
2022-12-04T15:48:08.506Z,19.65
2022-12-04T15:50:35.205Z,20.77
2022-12-04T15:53:12.520Z,21.25
2022-12-04T15:55:46.871Z,22.93
2022-12-04T15:58:27.685Z,21.48
2022-12-04T16:01:00.069Z,21.90
2022-12-04T16:03:38.111Z,20.73
2022-12-04T16:06:19.162Z,21.27
2022-12-04T16:08:54.703Z,21.20
2022-12-04T16:11:21.367Z,20.95
2022-12-04T16:13:50.834Z,23.25
2022-12-04T16:16:21.299Z,23.02
2022-12-04T16:18:47.866Z,22.70
2022-12-04T16:21:18.624Z,24.00
2022-12-04T16:23:45.409Z,23.85
2022-12-04T16:26:17.367Z,24.87
2022-12-04T16:28:44.449Z,25.48
2022-12-04T16:31:12.586Z,26.35
2022-12-04T16:33:39.700Z,26.17
2022-12-04T16:36:06.500Z,25.95
2022-12-04T16:38:32.914Z,26.55
2022-12-04T16:40:59.339Z,25.13
2022-12-04T16:43:25.763Z,25.17
2022-12-04T16:45:54.716Z,28.25
2022-12-04T16:48:21.082Z,26.90
2022-12-04T16:50:47.827Z,25.65
2022-12-04T16:53:19.155Z,26.57
2022-12-04T16:55:48.813Z,25.80
2022-12-04T16:58:16.127Z,26.02
2022-12-04T17:00:44.767Z,23.65
2022-12-04T17:03:25.591Z,26.38
2022-12-04T17:05:52.376Z,26.52
2022-12-04T17:08:20.711Z,25.23
2022-12-04T17:10:47.322Z,26.20
2022-12-04T17:13:13.745Z,23.73
2022-12-04T17:15:40.166Z,24.65
2022-12-04T17:18:11.364Z,24.77
2022-12-04T17:20:42.376Z,26.42
2022-12-04T17:23:10.717Z,25.08
2022-12-04T17:25:37.332Z,26.10
2022-12-04T17:28:04.408Z,24.83
2022-12-04T17:30:35.766Z,25.40
2022-12-04T17:33:03.049Z,25.98
2022-12-04T17:35:29.543Z,25.07
2022-12-04T17:37:58.373Z,26.05
2022-12-04T17:40:28.585Z,26.05
2022-12-04T17:42:54.980Z,25.88
2022-12-04T17:45:21.310Z,25.80
2022-12-04T17:47:47.678Z,26.58
2022-12-04T17:50:14.115Z,25.30
2022-12-04T17:52:40.518Z,25.35
2022-12-04T17:55:08.966Z,25.58
2022-12-04T17:57:35.543Z,25.33
2022-12-04T18:00:01.938Z,24.88
2022-12-04T18:02:28.501Z,26.27
2022-12-04T18:04:55.395Z,23.55
2022-12-04T18:07:22.281Z,24.55
2022-12-04T18:09:48.712Z,27.38
2022-12-04T18:12:15.277Z,26.83
2022-12-04T18:14:41.810Z,25.30
2022-12-04T18:17:08.270Z,23.17
2022-12-04T18:19:34.897Z,31.50
2022-12-04T18:22:01.575Z,25.70
2022-12-04T18:24:28.060Z,24.17
2022-12-04T18:26:54.476Z,26.27
2022-12-04T18:29:24.621Z,25.38
2022-12-04T18:31:51.675Z,26.02
2022-12-04T18:34:19.424Z,25.58
2022-12-04T18:39:16.087Z,24.63
2022-12-04T18:41:43.129Z,24.05
2022-12-04T18:44:09.737Z,23.23
2022-12-04T18:46:36.640Z,25.48
2022-12-04T18:49:03.620Z,25.13
2022-12-04T18:51:31.782Z,23.27
2022-12-04T18:54:01.033Z,23.80
2022-12-04T18:56:28.393Z,23.48
2022-12-04T18:59:04.727Z,22.27
2022-12-04T19:01:31.633Z,22.80
2022-12-04T19:04:01.019Z,22.85
2022-12-04T19:06:48.112Z,23.95
2022-12-04T19:09:17.944Z,21.83
2022-12-04T19:11:44.950Z,23.10
2022-12-04T19:14:21.003Z,22.35
2022-12-04T19:16:49.936Z,22.75
2022-12-04T19:19:16.817Z,23.13
2022-12-04T19:21:43.411Z,21.98
2022-12-04T19:24:10.517Z,23.08
2022-12-04T19:26:37.421Z,22.75
2022-12-04T19:29:05.499Z,23.23
2022-12-04T19:31:34.424Z,24.27
2022-12-04T19:34:01.609Z,22.42
2022-12-04T19:36:30.487Z,24.23
2022-12-04T19:38:57.852Z,23.20
2022-12-04T19:41:26.803Z,24.08
2022-12-04T19:43:57.057Z,23.33
2022-12-04T19:46:28.807Z,23.23
2022-12-04T19:48:58.294Z,22.33
2022-12-04T19:51:25.948Z,23.92
2022-12-04T19:56:24.256Z,22.90
2022-12-04T19:58:52.428Z,24.10
2022-12-04T20:01:21.301Z,22.52
2022-12-04T20:03:47.787Z,22.58
2022-12-04T20:06:17.992Z,21.73
2022-12-04T20:08:45.424Z,22.23
2022-12-04T20:11:17.807Z,21.35
2022-12-04T20:13:46.221Z,22.05
2022-12-04T20:16:15.340Z,20.58
2022-12-04T20:18:42.459Z,21.60
2022-12-04T20:21:13.311Z,21.85
2022-12-04T20:23:41.661Z,21.35
2022-12-04T20:26:11.249Z,22.45
2022-12-04T20:28:38.044Z,22.05
2022-12-04T20:31:34.242Z,21.33
2022-12-04T20:34:02.354Z,20.15
2022-12-04T20:36:30.002Z,20.58
2022-12-04T20:41:28.430Z,22.38
2022-12-04T20:43:55.052Z,21.10
2022-12-04T20:46:24.573Z,21.13
2022-12-04T20:48:53.476Z,21.27
2022-12-04T20:51:24.116Z,21.85
2022-12-04T20:53:51.557Z,22.65
2022-12-04T20:56:20.389Z,21.42
2022-12-04T20:58:46.805Z,22.25
2022-12-04T21:01:16.620Z,21.40
2022-12-04T21:03:44.561Z,21.35
2022-12-04T21:06:17.799Z,20.65
2022-12-04T21:08:53.294Z,19.83
2022-12-04T21:11:20.994Z,19.25
2022-12-04T21:14:05.829Z,20.13
2022-12-04T21:16:32.317Z,20.88
2022-12-04T21:18:58.727Z,20.73
2022-12-04T21:21:27.044Z,20.27
2022-12-04T21:23:53.543Z,20.42
2022-12-04T21:26:20.661Z,21.65
2022-12-04T21:28:47.369Z,20.77
2022-12-04T21:31:14.260Z,22.00
2022-12-04T21:33:40.668Z,21.88
2022-12-04T21:36:09.177Z,20.48
2022-12-04T21:38:37.145Z,20.48
2022-12-04T21:41:04.484Z,20.52
2022-12-04T21:43:33.258Z,20.88
2022-12-04T21:46:09.399Z,20.13
2022-12-04T21:48:36.960Z,19.98
2022-12-04T21:51:13.250Z,21.30
2022-12-04T21:53:54.640Z,21.10
2022-12-04T21:56:22.449Z,20.77
2022-12-04T21:58:48.847Z,20.98
2022-12-04T22:01:18.087Z,21.02
2022-12-04T22:03:44.754Z,21.00
2022-12-04T22:06:11.184Z,21.25
2022-12-04T22:08:39.984Z,22.20
2022-12-04T22:11:08.959Z,22.58
2022-12-04T22:13:36.551Z,21.17
2022-12-04T22:16:11.383Z,21.77
2022-12-04T22:18:38.256Z,22.30
2022-12-04T22:21:07.667Z,21.40
2022-12-04T22:23:34.598Z,21.55
2022-12-04T22:26:12.715Z,21.73
2022-12-04T22:28:40.057Z,20.30
2022-12-04T22:31:11.064Z,21.73
2022-12-04T22:33:38.311Z,22.90
2022-12-04T22:36:09.450Z,22.20
2022-12-04T22:38:47.209Z,20.88
2022-12-04T22:41:24.300Z,22.15
2022-12-04T22:43:51.019Z,23.08
2022-12-04T22:46:17.916Z,21.47
2022-12-04T22:48:45.099Z,21.05
2022-12-04T22:51:12.525Z,22.42
2022-12-04T22:53:41.371Z,23.45
2022-12-04T22:56:17.364Z,22.50
2022-12-04T22:58:44.495Z,22.85
2022-12-04T23:01:16.462Z,22.20
2022-12-04T23:03:43.247Z,22.45
2022-12-04T23:06:10.428Z,22.98
2022-12-04T23:08:38.816Z,22.55
2022-12-04T23:11:08.050Z,22.02
2022-12-04T23:13:34.804Z,22.98
2022-12-04T23:16:06.339Z,23.73
2022-12-04T23:18:36.387Z,23.25
2022-12-04T23:21:10.467Z,23.98
2022-12-04T23:23:38.656Z,23.00
2022-12-04T23:26:07.268Z,23.77
2022-12-04T23:28:33.936Z,23.33
2022-12-04T23:31:01.665Z,23.57
2022-12-04T23:33:28.451Z,25.63
2022-12-04T23:35:56.852Z,24.57
2022-12-04T23:38:24.918Z,25.38
2022-12-04T23:41:03.912Z,23.85
2022-12-04T23:43:30.652Z,23.75
2022-12-04T23:45:57.466Z,24.60
2022-12-04T23:48:25.048Z,24.00
2022-12-04T23:50:51.679Z,25.73
2022-12-04T23:53:18.554Z,25.17
2022-12-04T23:55:44.972Z,26.45
2022-12-04T23:58:11.328Z,24.75
